Time;durP1;ratioP1;P1;durP2;ratioP2;P2;SDS_P1;SDS_P2;PMS_P1;PMS_P2;Temp;Humidity;BMP_temperature;BMP_pressure;BME280_temperature;BME280_humidity;BME280_pressure;Samples;Min_cycle;Max_cycle;Signal;HPM_P1;HPM_P2
2023/05/12 03:46:51;;;;;;;;;;;18.50;73.10;;;;;;5062156;28;19950;-75
2023/05/12 03:49:18;;;;;;;;;;;18.50;74.90;;;;;;5090574;28;20346;-76
2023/05/12 03:51:45;;;;;;;;;;;18.50;74.50;;;;;;5090840;28;19908;-77
2023/05/12 03:54:12;;;;;;;;;;;18.60;74.80;;;;;;5090868;28;19914;-76
2023/05/12 03:56:38;;;;;;;;;;;18.50;74.50;;;;;;5086698;28;19920;-77
2023/05/12 03:59:05;;;;;;;;;;;18.60;74.80;;;;;;5077922;28;19916;-75
2023/05/12 04:01:32;;;;;;;;;;;18.60;75.10;;;;;;5071462;28;19924;-77
2023/05/12 04:03:59;;;;;;;;;;;18.50;75.10;;;;;;5072428;28;19999;-75
2023/05/12 04:06:25;;;;;;;;;;;18.60;75.10;;;;;;5077904;28;19909;-77
2023/05/12 04:08:52;;;;;;;;;;;18.50;76.10;;;;;;5092812;28;19912;-77
2023/05/12 04:11:19;;;;;;;;;;;18.60;75.90;;;;;;5090556;28;19930;-77
2023/05/12 04:13:45;;;;;;;;;;;18.60;76.10;;;;;;5084476;28;19956;-77
2023/05/12 04:16:12;;;;;;;;;;;18.50;76.40;;;;;;5075826;28;20255;-77
2023/05/12 04:18:39;;;;;;;;;;;18.50;77.00;;;;;;5075696;28;20054;-78
2023/05/12 04:21:06;;;;;;;;;;;18.60;78.10;;;;;;5071664;28;20278;-78
2023/05/12 04:23:33;;;;;;;;;;;18.60;78.50;;;;;;5078264;28;19924;-78
2023/05/12 04:26:02;;;;;;;;;;;18.60;78.60;;;;;;5089525;28;19919;-78
2023/05/12 04:28:29;;;;;;;;;;;18.70;79.30;;;;;;5090144;28;19916;-78
2023/05/12 04:30:55;;;;;;;;;;;18.60;79.10;;;;;;5079362;28;20370;-77
2023/05/12 04:33:22;;;;;;;;;;;18.60;78.80;;;;;;5084190;28;19938;-77
2023/05/12 04:35:49;;;;;;;;;;;18.60;79.20;;;;;;5086916;28;20258;-77
2023/05/12 04:38:15;;;;;;;;;;;18.60;78.90;;;;;;5090681;28;19987;-77
2023/05/12 04:40:42;;;;;;;;;;;18.60;78.90;;;;;;5091081;28;19999;-76
2023/05/12 04:43:09;;;;;;;;;;;18.60;79.20;;;;;;5092680;28;20007;-77
2023/05/12 04:45:36;;;;;;;;;;;18.60;78.70;;;;;;5092247;28;19919;-75
2023/05/12 04:48:02;;;;;;;;;;;18.70;78.50;;;;;;5089601;28;20349;-77
2023/05/12 04:50:29;;;;;;;;;;;18.70;78.40;;;;;;5088785;28;19919;-77
2023/05/12 04:52:56;;;;;;;;;;;18.60;79.10;;;;;;5103915;22;19932;-80
2023/05/12 04:55:22;;;;;;;;;;;18.70;80.20;;;;;;5091665;28;19912;-80
2023/05/12 04:57:49;;;;;;;;;;;18.70;80.20;;;;;;5092031;28;20422;-80
2023/05/12 05:00:16;;;;;;;;;;;18.70;80.40;;;;;;5073621;28;19948;-81
2023/05/12 05:02:43;;;;;;;;;;;18.70;80.40;;;;;;5091817;28;19912;-81
2023/05/12 05:05:10;;;;;;;;;;;18.70;80.00;;;;;;5091174;28;19913;-81
2023/05/12 05:07:37;;;;;;;;;;;18.60;79.90;;;;;;5091217;28;19919;-81
2023/05/12 05:10:04;;;;;;;;;;;18.60;79.80;;;;;;5083691;28;19942;-82
2023/05/12 05:12:31;;;;;;;;;;;18.60;79.70;;;;;;5086186;28;19965;-81
2023/05/12 05:14:58;;;;;;;;;;;18.70;79.40;;;;;;5088832;28;19916;-80
2023/05/12 05:17:24;;;;;;;;;;;18.70;79.60;;;;;;5089525;28;20301;-81
2023/05/12 05:19:51;;;;;;;;;;;18.60;79.90;;;;;;5088695;28;19927;-82
2023/05/12 05:22:18;;;;;;;;;;;18.60;79.90;;;;;;5088097;28;19931;-81
2023/05/12 05:24:45;;;;;;;;;;;18.60;79.60;;;;;;5093598;28;19912;-81
2023/05/12 05:27:12;;;;;;;;;;;18.60;80.20;;;;;;5090747;28;20401;-84
2023/05/12 05:29:39;;;;;;;;;;;18.60;80.10;;;;;;5074200;28;19908;-83
2023/05/12 05:32:06;;;;;;;;;;;18.50;80.00;;;;;;5072774;28;20437;-82
2023/05/12 05:34:32;;;;;;;;;;;18.60;80.00;;;;;;5094535;28;19961;-82
2023/05/12 05:36:59;;;;;;;;;;;18.50;79.80;;;;;;5095358;28;19912;-82
2023/05/12 05:39:29;;;;;;;;;;;18.50;79.30;;;;;;5095052;28;20284;-82
2023/05/12 05:41:56;;;;;;;;;;;18.50;79.50;;;;;;5093296;28;20382;-82
2023/05/12 05:44:24;;;;;;;;;;;18.40;79.90;;;;;;5093642;28;19924;-82
2023/05/12 05:46:50;;;;;;;;;;;18.40;79.90;;;;;;5091915;28;19922;-82
2023/05/12 05:49:17;;;;;;;;;;;18.40;80.10;;;;;;5093730;28;19912;-82
2023/05/12 05:51:44;;;;;;;;;;;18.50;80.40;;;;;;5092881;28;19927;-82
2023/05/12 05:54:11;;;;;;;;;;;18.50;80.30;;;;;;5095837;28;20403;-82
2023/05/12 05:56:37;;;;;;;;;;;18.40;80.70;;;;;;5095072;28;20383;-82
2023/05/12 05:59:04;;;;;;;;;;;18.40;80.50;;;;;;5093939;28;19918;-82
2023/05/12 06:01:31;;;;;;;;;;;18.40;80.60;;;;;;5092876;28;19920;-82
2023/05/12 06:03:58;;;;;;;;;;;18.50;80.80;;;;;;5090140;28;19923;-82
2023/05/12 06:06:25;;;;;;;;;;;18.40;80.90;;;;;;5091757;28;19919;-82
2023/05/12 06:08:54;;;;;;;;;;;18.40;81.40;;;;;;5092055;28;20289;-75
2023/05/12 06:11:22;;;;;;;39.95;8.35;;;18.40;81.70;;;;;;5090995;28;20400;-68
2023/05/12 06:13:49;;;;;;;12.13;2.78;;;18.50;82.10;;;;;;5093711;28;20032;-69
2023/05/12 06:16:17;;;;;;;11.30;3.15;;;18.40;82.20;;;;;;5080841;28;20478;-69
2023/05/12 06:18:44;;;;;;;13.20;3.22;;;18.40;82.30;;;;;;5074549;28;20039;-68
2023/05/12 06:21:11;;;;;;;10.88;3.08;;;18.40;82.60;;;;;;5074012;28;20040;-69
2023/05/12 06:23:39;;;;;;;7.97;2.53;;;18.30;82.70;;;;;;5076443;28;20025;-69
2023/05/12 06:26:06;;;;;;;7.18;2.22;;;18.30;82.60;;;;;;5094579;28;20035;-69
2023/05/12 06:28:34;;;;;;;13.88;2.92;;;18.30;82.70;;;;;;5093943;28;20036;-69
2023/05/12 06:31:01;;;;;;;13.55;3.03;;;18.30;82.70;;;;;;5094029;28;20032;-69
2023/05/12 06:33:28;;;;;;;11.02;3.47;;;18.30;82.90;;;;;;5075865;28;20032;-69
2023/05/12 06:35:56;;;;;;;13.07;4.05;;;18.30;83.00;;;;;;5073520;28;20041;-68
2023/05/12 06:38:23;;;;;;;13.98;3.35;;;18.30;83.00;;;;;;5071617;28;20047;-69
2023/05/12 06:40:51;;;;;;;26.90;3.85;;;18.30;83.10;;;;;;5072278;28;20060;-69
2023/05/12 06:43:18;;;;;;;13.13;2.92;;;18.30;83.10;;;;;;5090309;28;20040;-69
2023/05/12 06:45:46;;;;;;;11.30;3.00;;;18.30;83.10;;;;;;5054468;28;20036;-69
2023/05/12 06:48:13;;;;;;;11.55;3.00;;;18.30;83.00;;;;;;5073754;28;20818;-68
2023/05/12 06:50:41;;;;;;;12.15;3.05;;;18.30;83.00;;;;;;5085691;28;20040;-68
2023/05/12 06:53:08;;;;;;;13.60;3.15;;;18.30;82.90;;;;;;5086820;28;20460;-69
2023/05/12 06:55:36;;;;;;;11.68;3.00;;;18.30;83.00;;;;;;5072185;28;20044;-69
2023/05/12 06:58:03;;;;;;;10.60;3.00;;;18.30;83.10;;;;;;5075822;28;20082;-68
2023/05/12 07:00:30;;;;;;;15.23;3.08;;;18.20;83.00;;;;;;5070850;28;20036;-69
2023/05/12 07:02:58;;;;;;;9.98;2.80;;;18.20;82.90;;;;;;5078909;28;20506;-69
2023/05/12 07:05:25;;;;;;;12.80;2.90;;;18.20;82.90;;;;;;5085485;28;20039;-69
2023/05/12 07:07:53;;;;;;;9.48;2.70;;;18.20;82.90;;;;;;5089178;28;20512;-69
2023/05/12 07:10:20;;;;;;;11.43;2.45;;;18.20;82.90;;;;;;5087554;28;20358;-69
2023/05/12 07:12:47;;;;;;;13.40;2.72;;;18.10;82.80;;;;;;5076440;28;20043;-69
2023/05/12 07:15:15;;;;;;;13.70;2.65;;;18.10;82.80;;;;;;5088856;28;20024;-70
2023/05/12 07:17:42;;;;;;;12.30;2.58;;;18.10;82.70;;;;;;5081800;28;20040;-69
2023/05/12 07:20:10;;;;;;;10.05;2.42;;;18.00;82.70;;;;;;5070857;28;20051;-69
2023/05/12 07:22:37;;;;;;;10.85;2.70;;;18.10;82.70;;;;;;5070320;28;20390;-69
2023/05/12 07:25:06;;;;;;;10.48;3.33;;;18.00;82.60;;;;;;5070470;28;20036;-69
2023/05/12 07:27:34;;;;;;;10.10;3.08;;;18.10;82.70;;;;;;5073358;28;20408;-68
2023/05/12 07:30:01;;;;;;;10.70;2.85;;;18.00;82.70;;;;;;5087854;28;20032;-69
2023/05/12 07:32:28;;;;;;;13.93;2.97;;;18.00;82.70;;;;;;5071646;28;20040;-68
2023/05/12 07:34:56;;;;;;;6.43;2.67;;;18.00;82.70;;;;;;5087998;28;20393;-69
2023/05/12 07:37:23;;;;;;;8.68;2.60;;;17.90;82.80;;;;;;5090155;28;20073;-69
2023/05/12 07:39:51;;;;;;;8.20;2.25;;;17.90;82.80;;;;;;5090582;28;20048;-69
2023/05/12 07:42:18;;;;;;;6.68;2.28;;;17.80;82.80;;;;;;5084468;28;20739;-68
2023/05/12 07:44:46;;;;;;;10.45;2.55;;;17.80;82.80;;;;;;5061259;28;20040;-68
2023/05/12 07:47:13;;;;;;;10.32;2.90;;;17.80;82.90;;;;;;5071082;28;20452;-68
2023/05/12 07:49:41;;;;;;;7.90;2.65;;;17.80;82.90;;;;;;5044936;28;20414;-68
2023/05/12 07:52:08;;;;;;;7.10;2.38;;;17.80;83.00;;;;;;5051316;28;20059;-69
2023/05/12 07:54:36;;;;;;;9.77;2.40;;;17.70;83.00;;;;;;5088149;28;20028;-69
2023/05/12 07:57:04;;;;;;;9.68;2.53;;;17.70;83.10;;;;;;5087097;28;20058;-68
2023/05/12 07:59:32;;;;;;;10.05;2.53;;;17.80;83.10;;;;;;5072403;28;20230;-69
2023/05/12 08:01:59;;;;;;;10.27;2.78;;;17.70;83.10;;;;;;5075204;28;20051;-69
2023/05/12 08:04:27;;;;;;;11.10;2.60;;;17.70;83.10;;;;;;5084912;28;20093;-68
2023/05/12 08:06:54;;;;;;;9.27;2.65;;;17.80;83.00;;;;;;5078258;28;20039;-68
2023/05/12 08:09:21;;;;;;;9.07;2.40;;;17.80;83.00;;;;;;5076644;28;20040;-68
2023/05/12 08:11:49;;;;;;;80.03;19.55;;;17.70;83.00;;;;;;5083803;28;20042;-68
2023/05/12 08:14:16;;;;;;;19.05;4.97;;;17.70;83.00;;;;;;5076270;28;20039;-69
2023/05/12 08:16:45;;;;;;;18.67;4.25;;;17.70;83.10;;;;;;5081987;28;20066;-69
2023/05/12 08:19:13;;;;;;;11.32;2.92;;;17.70;83.10;;;;;;5041726;28;20789;-69
2023/05/12 08:21:40;;;;;;;8.70;2.90;;;17.70;83.10;;;;;;5051202;28;20323;-68
2023/05/12 08:24:08;;;;;;;16.98;5.10;;;17.70;83.20;;;;;;5080143;28;20036;-69
2023/05/12 08:26:38;;;;;;;10.15;2.95;;;17.70;83.30;;;;;;5070774;28;20040;-68
2023/05/12 08:29:07;;;;;;;7.63;2.53;;;17.70;83.30;;;;;;5087627;28;20490;-69
2023/05/12 08:31:36;;;;;;;8.30;2.40;;;17.70;83.30;;;;;;5071477;28;20043;-69
2023/05/12 08:34:04;;;;;;;8.27;2.58;;;17.70;83.40;;;;;;5079081;28;20048;-69
2023/05/12 08:36:31;;;;;;;11.43;3.35;;;17.60;83.50;;;;;;5082430;28;20032;-69
2023/05/12 08:38:59;;;;;;;8.23;2.85;;;17.60;83.50;;;;;;5085812;28;20043;-69
2023/05/12 08:41:47;;;;;;;9.23;2.92;;;17.60;83.70;;;;;;5089185;28;20093;-69
2023/05/12 08:44:14;;;;;;;7.88;2.80;;;17.60;83.90;;;;;;5077213;28;20025;-69
2023/05/12 08:46:42;;;;;;;7.82;2.55;;;17.60;84.00;;;;;;5034703;28;20037;-69
2023/05/12 08:49:16;;;;;;;12.13;3.20;;;17.60;84.00;;;;;;5060650;28;20868;-69
2023/05/12 08:51:44;;;;;;;7.20;2.70;;;17.50;84.10;;;;;;5036105;28;20040;-69
2023/05/12 08:54:12;;;;;;;11.63;3.03;;;17.50;84.10;;;;;;5042939;28;20426;-69
2023/05/12 08:56:42;;;;;;;12.05;3.38;;;17.50;84.30;;;;;;5069418;28;20040;-69
2023/05/12 08:59:10;;;;;;;10.45;3.45;;;17.50;84.40;;;;;;5069413;28;20075;-70
2023/05/12 09:01:41;;;;;;;14.68;3.35;;;17.50;84.50;;;;;;5033160;28;20056;-69
2023/05/12 09:04:09;;;;;;;14.88;5.22;;;17.50;84.70;;;;;;5079509;28;20039;-70
2023/05/12 09:06:36;;;;;;;10.50;3.50;;;17.50;84.70;;;;;;5053881;28;20093;-71
2023/05/12 09:09:04;;;;;;;9.30;3.40;;;17.50;84.80;;;;;;5073138;28;20033;-69
2023/05/12 09:11:31;;;;;;;14.55;3.50;;;17.50;84.80;;;;;;5073630;28;20047;-69
2023/05/12 09:14:08;;;;;;;8.70;2.90;;;17.40;84.90;;;;;;5078403;28;20454;-68
2023/05/12 09:16:45;;;;;;;9.80;3.03;;;17.50;85.00;;;;;;5088279;28;20486;-70
2023/05/12 09:19:13;;;;;;;9.80;2.97;;;17.50;85.10;;;;;;5037831;28;20136;-69
2023/05/12 09:21:40;;;;;;;9.73;3.25;;;17.50;85.10;;;;;;5059933;28;20131;-69
2023/05/12 09:24:08;;;;;;;9.80;3.10;;;17.50;85.10;;;;;;5044642;28;20040;-70
2023/05/12 09:26:50;;;;;;;8.45;2.65;;;17.50;85.10;;;;;;5068395;28;20036;-70
2023/05/12 09:29:17;;;;;;;10.18;2.50;;;17.50;85.20;;;;;;5068797;28;20045;-69
2023/05/12 09:31:55;;;;;;;8.05;2.72;;;17.50;85.20;;;;;;5078150;28;20062;-71
2023/05/12 09:34:31;;;;;;;10.25;2.65;;;17.50;85.20;;;;;;5075754;28;20036;-71
2023/05/12 09:37:00;;;;;;;6.43;2.75;;;17.50;85.20;;;;;;5050087;28;20178;-72
2023/05/12 09:39:27;;;;;;;9.93;2.75;;;17.50;85.10;;;;;;5088712;28;20028;-70
2023/05/12 09:41:55;;;;;;;7.75;3.10;;;17.40;85.20;;;;;;5069917;28;20051;-71
2023/05/12 09:44:23;;;;;;;10.23;3.10;;;17.40;85.20;;;;;;5058555;28;20043;-70
2023/05/12 09:46:51;;;;;;;6.93;2.70;;;17.40;85.30;;;;;;5050785;28;20044;-70
2023/05/12 09:49:19;;;;;;;10.85;3.20;;;17.40;85.30;;;;;;5048800;28;20036;-71
2023/05/12 09:51:51;;;;;;;10.15;3.00;;;17.40;85.40;;;;;;5068588;28;20044;-72
2023/05/12 09:54:28;;;;;;;14.20;3.28;;;17.40;85.40;;;;;;5073328;28;20119;-70
2023/05/12 09:57:00;;;;;;;8.00;3.20;;;17.40;85.30;;;;;;5068367;28;20390;-70
2023/05/12 09:59:33;;;;;;;10.80;3.58;;;17.30;85.40;;;;;;5059701;28;20032;-70
2023/05/12 10:02:01;;;;;;;9.35;2.97;;;17.30;85.30;;;;;;5068992;28;20051;-70
2023/05/12 10:04:38;;;;;;;10.27;3.33;;;17.30;85.30;;;;;;5089034;28;20112;-69
2023/05/12 10:07:10;;;;;;;7.30;2.88;;;17.30;85.30;;;;;;5055021;28;20039;-69
2023/05/12 10:09:38;;;;;;;13.23;3.47;;;17.30;85.20;;;;;;5078831;28;20025;-71
2023/05/12 10:12:05;;;;;;;12.52;4.00;;;17.30;85.10;;;;;;5084780;28;20803;-71
2023/05/12 10:14:33;;;;;;;9.27;3.25;;;17.20;85.10;;;;;;5073624;28;20081;-70
2023/05/12 10:17:00;;;;;;;11.48;3.35;;;17.20;85.10;;;;;;5057458;28;20055;-71
2023/05/12 10:19:29;;;;;;;9.73;3.55;;;17.20;85.10;;;;;;5054623;28;20020;-71
2023/05/12 10:22:00;;;;;;;12.93;4.00;;;17.20;85.20;;;;;;5082808;28;20560;-70
2023/05/12 10:24:27;;;;;;;12.18;3.65;;;17.20;85.10;;;;;;5073835;28;20111;-71
2023/05/12 10:26:58;;;;;;;13.23;4.63;;;17.20;85.10;;;;;;5090687;28;20055;-71
2023/05/12 10:29:28;;;;;;;15.38;4.40;;;17.10;85.10;;;;;;5091148;28;20044;-71
2023/05/12 10:31:56;;;;;;;9.30;4.43;;;17.20;85.10;;;;;;5072702;28;20398;-71
2023/05/12 10:34:28;;;;;;;14.65;4.35;;;17.10;85.10;;;;;;5074983;28;20044;-71
2023/05/12 10:36:57;;;;;;;7.82;3.13;;;17.10;85.00;;;;;;5077388;28;20036;-69
2023/05/12 10:39:31;;;;;;;12.95;3.83;;;17.10;85.00;;;;;;5056838;28;20036;-69
2023/05/12 10:42:05;;;;;;;10.73;4.05;;;17.10;84.90;;;;;;5076758;28;20131;-72
2023/05/12 10:44:34;;;;;;;10.13;4.00;;;17.10;84.80;;;;;;5063890;28;20036;-77
2023/05/12 10:47:02;;;;;;;9.88;3.60;;;17.10;84.80;;;;;;5089749;28;20070;-70
2023/05/12 10:49:42;;;;;;;9.40;3.40;;;17.10;84.80;;;;;;5082654;28;20028;-68
2023/05/12 10:52:12;;;;;;;;;;;17.10;84.80;;;;;;5076552;28;20051;-71
2023/05/12 10:54:43;;;;;;;8.57;3.33;;;17.10;84.80;;;;;;5084419;28;19912;-71
2023/05/12 10:57:15;;;;;;;13.18;3.67;;;17.10;84.70;;;;;;5060083;28;20464;-73
2023/05/12 10:59:56;;;;;;;12.30;3.75;;;17.10;84.60;;;;;;5075556;28;20039;-71
2023/05/12 11:02:29;;;;;;;;;;;17.00;84.70;;;;;;5077982;28;20043;-73
2023/05/12 11:05:04;;;;;;;7.72;3.53;;;17.00;84.80;;;;;;5089289;28;19961;-72
2023/05/12 11:07:32;;;;;;;9.63;3.55;;;17.00;84.80;;;;;;5089027;28;20402;-73
2023/05/12 11:10:01;;;;;;;6.22;3.22;;;17.00;84.80;;;;;;5089186;28;20473;-72
2023/05/12 11:12:34;;;;;;;6.28;3.35;;;17.00;84.90;;;;;;5082590;28;20048;-72
2023/05/12 11:15:02;;;;;;;12.10;4.15;;;17.00;84.90;;;;;;5060629;28;20040;-71
2023/05/12 11:17:30;;;;;;;8.38;4.13;;;16.90;85.00;;;;;;5053333;28;20040;-73
2023/05/12 11:19:59;;;;;;;15.00;4.72;;;16.80;85.00;;;;;;5071442;28;20047;-71
2023/05/12 11:22:27;;;;;;;15.35;4.55;;;16.80;85.10;;;;;;5071811;28;20409;-71
2023/05/12 11:24:54;;;;;;;15.93;4.30;;;16.70;85.20;;;;;;5051097;28;20040;-72
2023/05/12 11:27:22;;;;;;;8.40;4.15;;;16.70;85.30;;;;;;5061975;28;20040;-71
2023/05/12 11:30:00;;;;;;;11.20;4.32;;;16.60;85.50;;;;;;5067310;28;20517;-71
2023/05/12 11:32:28;;;;;;;12.18;4.75;;;16.60;85.80;;;;;;5036790;28;20044;-70
2023/05/12 11:34:55;;;;;;;10.98;4.22;;;16.70;85.70;;;;;;5070653;28;20040;-72
2023/05/12 11:37:23;;;;;;;10.80;4.40;;;16.70;85.90;;;;;;5062799;28;20059;-71
2023/05/12 11:39:51;;;;;;;12.98;4.97;;;16.60;85.90;;;;;;5069114;28;20036;-70
2023/05/12 11:42:19;;;;;;;15.63;5.45;;;16.60;85.90;;;;;;5071769;28;20489;-71
2023/05/12 11:44:50;;;;;;;19.70;5.15;;;16.50;86.10;;;;;;5035914;28;20032;-71
2023/05/12 11:47:18;;;;;;;16.48;5.25;;;16.50;86.10;;;;;;5056833;28;20044;-71
2023/05/12 11:49:55;;;;;;;15.07;4.82;;;16.60;86.20;;;;;;5078644;28;20422;-70
2023/05/12 11:52:23;;;;;;;13.05;5.75;;;16.50;86.30;;;;;;5071900;28;20122;-72
2023/05/12 11:54:59;;;;;;;14.00;5.35;;;16.60;86.40;;;;;;5061744;28;20491;-72
2023/05/12 11:57:27;;;;;;;20.90;6.32;;;16.50;86.40;;;;;;5063927;28;20134;-71
2023/05/12 11:59:59;;;;;;;17.35;5.45;;;16.50;86.40;;;;;;5074293;28;20500;-72
2023/05/12 12:02:26;;;;;;;12.77;5.78;;;16.50;86.50;;;;;;5051361;28;20059;-71
2023/05/12 12:04:54;;;;;;;21.40;5.20;;;16.50;86.70;;;;;;5054751;28;20040;-73
2023/05/12 12:07:31;;;;;;;12.75;4.47;;;16.50;86.80;;;;;;5087540;28;20047;-72
2023/05/12 12:10:10;;;;;;;12.80;4.72;;;16.50;86.90;;;;;;5071019;28;20040;-71
2023/05/12 12:12:38;;;;;;;13.98;4.90;;;16.50;87.00;;;;;;5070307;28;20097;-72
2023/05/12 12:15:06;;;;;;;14.82;4.57;;;16.50;87.10;;;;;;5038271;28;20043;-70
2023/05/12 12:17:33;;;;;;;10.77;4.55;;;16.50;87.10;;;;;;5055030;28;20170;-71
2023/05/12 12:20:00;;;;;;;13.82;5.22;;;16.50;87.20;;;;;;5057793;28;20143;-71
2023/05/12 12:22:32;;;;;;;12.40;4.97;;;16.50;87.30;;;;;;5045260;28;20045;-71
2023/05/12 12:25:01;;;;;;;15.25;5.15;;;16.50;87.30;;;;;;5072205;28;20028;-71
2023/05/12 12:27:28;;;;;;;11.85;4.95;;;16.50;87.30;;;;;;5077116;28;20517;-70
2023/05/12 12:29:55;;;;;;;12.95;4.93;;;16.50;87.40;;;;;;5091371;28;20047;-71
2023/05/12 12:32:23;;;;;;;18.88;5.70;;;16.50;87.30;;;;;;5070381;28;20059;-70
2023/05/12 12:34:51;;;;;;;15.30;5.53;;;16.50;87.40;;;;;;5072080;28;20042;-71
2023/05/12 12:37:19;;;;;;;15.35;5.93;;;16.50;87.30;;;;;;5072397;28;20040;-70
2023/05/12 12:39:46;;;;;;;15.27;5.28;;;16.50;87.40;;;;;;5091012;28;20390;-70
2023/05/12 12:42:14;;;;;;;16.83;5.15;;;16.50;87.30;;;;;;5091980;28;20046;-70
2023/05/12 12:44:42;;;;;;;13.90;5.20;;;16.50;87.20;;;;;;5089520;28;20028;-70
2023/05/12 12:47:10;;;;;;;17.35;4.93;;;16.40;87.30;;;;;;5089131;28;20405;-70
2023/05/12 12:49:37;;;;;;;18.48;5.65;;;16.40;87.30;;;;;;5089170;28;20047;-70
2023/05/12 12:52:05;;;;;;;15.52;5.50;;;16.30;87.30;;;;;;5053778;28;20043;-71
2023/05/12 12:54:33;;;;;;;12.45;5.13;;;16.30;87.40;;;;;;5071746;28;20482;-70
2023/05/12 12:57:00;;;;;;;11.88;4.65;;;16.30;87.50;;;;;;5065155;28;20040;-70
2023/05/12 12:59:27;;;;;;;14.38;4.70;;;16.30;87.50;;;;;;5073878;28;20036;-70
2023/05/12 13:01:58;;;;;;;12.02;4.32;;;16.30;87.40;;;;;;5090031;28;20059;-70
2023/05/12 13:04:26;;;;;;;13.20;4.63;;;16.40;87.30;;;;;;5088770;28;20036;-70
2023/05/12 13:06:53;;;;;;;15.20;4.70;;;16.40;87.10;;;;;;5072336;28;20089;-70
2023/05/12 13:09:20;;;;;;;12.38;4.53;;;16.30;87.20;;;;;;5071616;28;20427;-70
2023/05/12 13:11:49;;;;;;;16.00;5.22;;;16.30;87.00;;;;;;5053483;28;20170;-70
2023/05/12 13:14:16;;;;;;;13.82;4.82;;;16.30;87.00;;;;;;5071812;28;20037;-70
2023/05/12 14:44:07;;;;;;;8.43;3.20;;;16.40;85.60;;;;;;5068422;28;20059;-70
2023/05/12 14:46:34;;;;;;;11.18;3.50;;;16.40;85.70;;;;;;5064346;28;20103;-70
2023/05/12 14:49:02;;;;;;;11.00;3.20;;;16.40;85.70;;;;;;5053745;28;20445;-70
2023/05/12 14:51:29;;;;;;;10.30;3.72;;;16.40;85.60;;;;;;5053472;28;20491;-70
2023/05/12 14:53:57;;;;;;;10.90;3.35;;;16.40;85.60;;;;;;5065659;28;20063;-70
2023/05/12 14:56:24;;;;;;;12.77;3.85;;;16.30;85.40;;;;;;5070651;28;20040;-70
2023/05/12 14:58:52;;;;;;;12.95;3.80;;;16.30;85.50;;;;;;5072607;28;20025;-70
2023/05/12 15:01:19;;;;;;;13.15;3.83;;;16.20;85.70;;;;;;5072449;28;20048;-70
2023/05/12 15:03:46;;;;;;;7.63;3.05;;;16.30;85.70;;;;;;5057057;28;20033;-70
2023/05/12 15:06:14;;;;;;;15.48;3.80;;;16.20;85.70;;;;;;5066737;28;20119;-70
2023/05/12 15:08:41;;;;;;;15.40;3.70;;;16.20;85.80;;;;;;5072976;28;20032;-70
2023/05/12 15:11:09;;;;;;;11.10;3.55;;;16.30;85.80;;;;;;5072495;28;20037;-70
2023/05/12 15:13:36;;;;;;;11.60;3.17;;;16.20;85.80;;;;;;5069817;28;20037;-70
2023/05/12 15:16:04;;;;;;;13.27;3.67;;;16.30;85.90;;;;;;5064651;28;20072;-70
2023/05/12 15:18:31;;;;;;;8.35;3.10;;;16.20;85.90;;;;;;5051647;28;20064;-70
2023/05/12 15:20:59;;;;;;;12.45;4.03;;;16.20;85.90;;;;;;5053440;28;20032;-70
2023/05/12 15:23:26;;;;;;;6.75;3.03;;;16.20;85.90;;;;;;5066312;28;20043;-70
2023/05/12 15:25:53;;;;;;;9.55;3.38;;;16.20;86.00;;;;;;5064758;28;20028;-70
2023/05/12 15:28:21;;;;;;;10.75;3.35;;;16.20;86.00;;;;;;5071579;28;20033;-70
2023/05/12 15:30:55;;;;;;;9.07;3.25;;;16.20;86.10;;;;;;5072156;28;20065;-70
2023/05/12 15:33:23;;;;;;;7.68;3.25;;;16.10;86.10;;;;;;5064145;28;20032;-70
2023/05/12 15:35:51;;;;;;;11.65;3.45;;;16.10;86.20;;;;;;5062760;28;20067;-70
2023/05/12 15:38:18;;;;;;;7.38;3.50;;;16.10;86.30;;;;;;5071453;28;20449;-70
2023/05/12 15:40:46;;;;;;;8.82;3.53;;;16.10;86.20;;;;;;5069428;28;20063;-70
2023/05/12 15:43:13;;;;;;;12.02;3.70;;;16.10;86.30;;;;;;5108721;27;20521;-70
2023/05/12 15:45:41;;;;;;;6.07;3.10;;;16.10;86.40;;;;;;5094265;28;20043;-70
2023/05/12 15:48:09;;;;;;;11.43;3.65;;;16.00;86.50;;;;;;5095495;28;20066;-70
2023/05/12 15:50:37;;;;;;;10.57;3.25;;;16.00;86.50;;;;;;5097355;28;20028;-70
2023/05/12 15:53:05;;;;;;;14.88;3.88;;;16.00;86.60;;;;;;5099148;28;20031;-70
2023/05/12 15:55:33;;;;;;;8.55;2.95;;;16.00;86.70;;;;;;5113667;27;20039;-70
2023/05/12 15:58:02;;;;;;;8.07;3.17;;;16.00;86.60;;;;;;5113289;28;20036;-70
2023/05/12 16:00:29;;;;;;;9.20;3.35;;;16.00;86.60;;;;;;5113169;28;20031;-70
2023/05/12 16:02:57;;;;;;;10.35;3.40;;;16.00;86.70;;;;;;5110838;28;20048;-70
2023/05/12 16:05:29;;;;;;;10.43;3.63;;;15.90;86.70;;;;;;5088295;28;20406;-70
2023/05/12 16:07:57;;;;;;;7.90;3.28;;;15.80;86.80;;;;;;5093747;28;20394;-70
2023/05/12 16:10:24;;;;;;;7.82;3.28;;;15.70;87.00;;;;;;5113076;28;20102;-70
2023/05/12 16:12:51;;;;;;;11.85;3.22;;;15.70;87.10;;;;;;5072200;28;20028;-70
2023/05/12 16:15:19;;;;;;;15.95;3.80;;;15.70;87.10;;;;;;5059075;28;20028;-70
2023/05/12 16:17:46;;;;;;;9.05;3.00;;;15.70;87.20;;;;;;5094734;28;20036;-71
2023/05/12 16:20:14;;;;;;;7.53;3.03;;;15.70;87.40;;;;;;5076121;28;20042;-70
2023/05/12 16:22:41;;;;;;;10.40;3.25;;;15.50;87.30;;;;;;5094980;28;20055;-70
2023/05/12 16:25:09;;;;;;;7.35;3.33;;;15.40;87.40;;;;;;5089971;28;20502;-70
2023/05/12 16:27:37;;;;;;;11.27;3.30;;;15.40;87.40;;;;;;5057246;28;20471;-70
2023/05/12 16:30:05;;;;;;;9.25;3.08;;;15.40;87.60;;;;;;5074544;28;20489;-69
2023/05/12 16:32:33;;;;;;;9.90;3.65;;;15.40;87.70;;;;;;5093846;28;20451;-70
2023/05/12 16:35:01;;;;;;;6.30;3.17;;;15.40;87.70;;;;;;5090165;28;20028;-70
2023/05/12 16:37:28;;;;;;;9.73;3.17;;;15.40;87.80;;;;;;5093420;28;20039;-70
2023/05/12 16:39:55;;;;;;;7.13;3.00;;;15.40;87.70;;;;;;5092118;28;20028;-70
2023/05/12 16:42:23;;;;;;;7.65;3.00;;;15.40;87.90;;;;;;5054274;28;20040;-70
2023/05/12 16:44:54;;;;;;;11.20;3.40;;;15.40;87.70;;;;;;5073422;28;20039;-71
2023/05/12 16:47:21;;;;;;;9.25;3.42;;;15.40;87.80;;;;;;5085181;28;20036;-70
2023/05/12 16:49:52;;;;;;;7.60;3.42;;;15.30;87.80;;;;;;5069295;28;20035;-71
2023/05/12 16:52:20;;;;;;;10.65;3.50;;;15.30;87.90;;;;;;5085528;28;20060;-70
2023/05/12 16:54:47;;;;;;;5.88;3.10;;;15.30;88.00;;;;;;5071551;28;20142;-70
2023/05/12 16:57:15;;;;;;;6.35;3.33;;;15.30;87.90;;;;;;5053046;28;20040;-70
2023/05/12 16:59:42;;;;;;;7.78;3.45;;;15.30;88.00;;;;;;5051848;28;20029;-69
2023/05/12 17:02:10;;;;;;;8.40;3.67;;;15.30;88.20;;;;;;5070211;28;20055;-71
2023/05/12 17:04:37;;;;;;;10.70;3.28;;;15.30;88.30;;;;;;5089160;28;20114;-70
2023/05/12 17:07:05;;;;;;;8.90;3.58;;;15.30;88.30;;;;;;5090331;28;20099;-70
2023/05/12 17:09:32;;;;;;;8.82;3.35;;;15.30;88.40;;;;;;5091695;28;20031;-70
2023/05/12 17:12:00;;;;;;;7.28;3.30;;;15.30;88.50;;;;;;5082706;28;20039;-70
2023/05/12 17:14:27;;;;;;;10.25;3.50;;;15.30;88.50;;;;;;5072172;28;20032;-70
2023/05/12 17:16:55;;;;;;;8.88;3.47;;;15.40;88.50;;;;;;5070151;28;20102;-70
2023/05/12 17:19:22;;;;;;;10.00;3.70;;;15.30;88.50;;;;;;5072125;28;20043;-70
2023/05/12 17:21:50;;;;;;;8.93;3.33;;;15.30;88.60;;;;;;5075865;28;20498;-70
2023/05/12 17:24:17;;;;;;;10.85;3.45;;;15.30;88.50;;;;;;5076854;28;20466;-70
2023/05/12 17:26:44;;;;;;;9.32;3.20;;;15.30;88.50;;;;;;5077726;28;20032;-70
2023/05/12 17:29:12;;;;;;;11.73;3.85;;;15.30;88.50;;;;;;5094344;28;20394;-70
2023/05/12 17:31:40;;;;;;;10.02;3.88;;;15.40;88.30;;;;;;5081850;28;20090;-70
2023/05/12 17:34:07;;;;;;;7.70;3.45;;;15.40;88.30;;;;;;5073423;28;20041;-70
2023/05/12 17:36:35;;;;;;;9.93;3.33;;;15.40;88.20;;;;;;5057831;28;20064;-70
2023/05/12 17:39:02;;;;;;;10.82;3.80;;;15.40;88.00;;;;;;5037437;28;20033;-70
2023/05/12 17:41:30;;;;;;;8.23;3.53;;;15.40;87.70;;;;;;5053841;28;20450;-70
2023/05/12 17:43:57;;;;;;;9.88;3.92;;;15.30;87.40;;;;;;5073892;28;20048;-70
2023/05/12 17:46:24;;;;;;;12.23;3.78;;;15.30;87.30;;;;;;5091065;28;20136;-69
2023/05/12 17:48:52;;;;;;;8.77;3.75;;;15.40;87.00;;;;;;5054908;28;20049;-71
2023/05/12 17:51:19;;;;;;;9.93;4.05;;;15.40;86.90;;;;;;5054168;28;20399;-70
2023/05/12 17:53:47;;;;;;;9.57;3.78;;;15.40;86.90;;;;;;5067646;28;20032;-70
2023/05/12 17:56:14;;;;;;;9.05;4.10;;;15.30;86.50;;;;;;5089291;28;20115;-70
2023/05/12 17:58:41;;;;;;;8.35;3.60;;;15.30;86.60;;;;;;5091515;28;20531;-70
2023/05/12 18:01:09;;;;;;;12.27;3.60;;;15.30;86.70;;;;;;5071102;28;20041;-69
2023/05/12 18:03:36;;;;;;;9.43;4.05;;;15.30;86.40;;;;;;5083143;28;20047;-70
2023/05/12 18:06:04;;;;;;;7.15;3.60;;;15.30;86.40;;;;;;5080773;28;20036;-70
2023/05/12 18:08:31;;;;;;;8.52;3.95;;;15.30;86.20;;;;;;5061586;28;20095;-70
2023/05/12 18:10:59;;;;;;;8.93;3.58;;;15.20;86.00;;;;;;5074856;28;20170;-70
2023/05/12 18:13:26;;;;;;;12.38;4.05;;;15.20;85.90;;;;;;5086429;28;20143;-70
2023/05/12 18:15:54;;;;;;;6.97;3.30;;;15.20;86.00;;;;;;5088543;28;20390;-70